Archival Weather

Chicago O'Hare International

Chicago, Illinois (KORD)

Report from: Saturday, March 31, 2012 7:51 AM CDT
Current time: Tuesday, July 16, 2024 4:16 AM CDT

Current weather – Weather history – Daily summaries
Weather forecast

Temperature4.4°C (39.9°F)
Wind chill0.5°C (32.9°F)
Dew point1.1°C (34.0°F)
Winds 10 kts (5.1 m/s, 11.5 mph) East-Northeast (60°)
Visibility9 mi. (14.5 km)
Clouds Ceiling: Overcast 1,000 ft. (305 m)
Altimeter29.98 in.Hg (1015 mB)
Relative humidity79 %
Density altitude-1,267 ft. (-386 m)
Sea-level pressure101.6 kPa (1016 mB, 29.99 in.Hg)
Remarks System requires maintenance
Automated weather observing station with precipitation discriminator
Flight conditions Marginal Visual Meteorological Conditions
Raw data2012-03-31 12:51 KORD 311251Z 06010KT 9SM OVC010 04/01 A2998 RMK AO2 SLP157 T00440011 $
An error has occurred. This application may no longer respond until reloaded. Reload 🗙